Latest Weather Observations for Darwin Harbour

IDD60801

Issued at 12:31 pm CST Tuesday 30 November 2021 (issued every 10 minutes, with the page automatically refreshed every 10 minutes)

About weather observations | Map of weather stations | Latest weather observations for NT | Other Formats
Station Details ID: 014072 Name: DARWIN NTC AWS Lat: -12.47 Lon: 130.85 Height: 0.0 m
Data from the previous 72 hours. | See also: Recent months for locations in Northern Territory

* Apparent Temperature, Dew Point, Relative Humidity, Delta-T and Rain since 9am use data from Darwin Airport, as humidity and rainfall observations are not available for Darwin Harbour.

Date/Time
CST
Temp
°C
App
Temp
°C
Dew
Point
°C
Rel
Hum
%
Delta-T
°C
Wind Press
QNH
hPa
Press
MSL
hPa
Rain since
9am
mm
Dir  Spd
km/h
Gust
km/h
Spd
kts
Gust
kts
30/12:30pm 32.0 37.1 22.7 58 6.4 CALM 0 6 0 3 1006.4 1006.3 -
30/12:00pm 31.4 36.3 22.4 59 6.1 CALM 0 2 0 1 1006.9 1006.8 0.0
30/11:30am 31.0 36.2 22.8 61 5.6 CALM 0 4 0 2 1007.4 1007.3 0.0
30/11:00am 30.8 35.2 22.8 62 5.5 SW 4 7 2 4 1007.9 1007.8 0.0
30/10:30am 30.6 35.4 23.5 66 4.9 SSW 4 6 2 3 1008.4 1008.3 0.0
30/10:00am 30.3 35.8 24.6 71 4.0 SW 4 7 2 4 1008.6 1008.5 0.0
30/09:30am 29.8 34.9 25.0 75 3.4 SSW 7 13 4 7 1008.7 1008.6 0.0
30/09:00am 29.3 34.1 25.1 78 3.0 SSW 9 13 5 7 1008.6 1008.5 0.0
30/08:30am 28.9 32.5 24.4 76 3.1 SSW 13 17 7 9 1008.3 1008.2 0.0
30/08:00am 28.8 34.1 24.3 76 3.1 SE 4 7 2 4 1008.1 1008.0 0.0
30/07:30am 28.4 31.8 24.1 77 3.0 ESE 13 17 7 9 1008.0 1007.9 0.0
30/07:00am 28.1 31.3 24.3 80 2.6 E 15 19 8 10 1007.6 1007.5 0.0
30/06:30am 29.0 32.2 24.3 76 3.3 SE 15 20 8 11 1007.0 1006.9 0.0
30/06:00am 29.6 34.4 24.1 72 3.8 WSW 6 9 3 5 1006.2 1006.1 0.0
30/05:30am 29.6 34.2 24.2 72 3.8 W 7 9 4 5 1006.0 1005.9 0.0
30/05:00am 29.6 33.9 24.2 72 3.8 W 9 13 5 7 1005.7 1005.6 0.0
30/04:30am 29.7 33.8 24.0 71 4.0 WSW 9 13 5 7 1005.5 1005.4 0.0
30/04:00am 29.8 33.6 24.1 71 4.0 WSW 11 17 6 9 1005.5 1005.4 0.0
30/03:30am 29.8 33.2 24.0 71 4.0 WSW 13 17 7 9 1005.7 1005.6 0.0
30/03:00am 29.5 32.8 23.8 71 3.9 W 13 17 7 9 1005.7 1005.6 0.0
30/02:30am 29.6 32.8 23.7 70 4.1 W 13 17 7 9 1006.0 1005.9 0.0
30/02:00am 29.7 33.0 23.8 70 4.1 W 13 17 7 9 1006.2 1006.1 0.0
30/01:30am 29.9 32.9 23.4 68 4.5 W 13 17 7 9 1006.4 1006.3 0.0
30/01:00am 29.9 32.8 23.2 67 4.6 WSW 13 17 7 9 1006.6 1006.5 0.0
30/12:30am 30.1 32.8 23.4 67 4.6 W 15 20 8 11 1007.0 1006.9 0.0
30/12:00am 30.2 32.6 23.0 65 4.9 W 15 19 8 10 1007.4 1007.3 0.0
 
Date/Time
CST
Temp
°C
App
Temp
°C
Dew
Point
°C
Rel
Hum
%
Delta-T
°C
Wind Press
QNH
hPa
Press
MSL
hPa
Rain since
9am
mm
Dir  Spd
km/h
Gust
km/h
Spd
kts
Gust
kts
29/11:30pm 30.4 33.2 23.0 64 5.1 W 13 17 7 9 1007.6 1007.5 0.0
29/11:00pm 30.5 33.2 22.8 63 5.3 W 13 17 7 9 1007.8 1007.7 0.0
29/10:30pm 30.6 33.0 22.9 63 5.3 W 15 19 8 10 1007.8 1007.7 0.0
29/10:00pm 30.7 33.5 23.0 63 5.3 W 13 17 7 9 1007.6 1007.5 0.0
29/09:30pm 30.7 33.4 23.4 65 5.0 W 15 20 8 11 1007.5 1007.4 0.0
29/09:00pm 30.6 33.7 23.5 66 4.9 W 13 19 7 10 1007.1 1007.0 0.0
29/08:30pm 30.7 33.7 23.3 64 5.1 W 13 19 7 10 1006.9 1006.8 0.0
29/08:00pm 30.8 33.5 22.9 62 5.4 W 13 20 7 11 1006.6 1006.5 0.0
29/07:30pm 30.9 32.8 22.7 61 5.6 W 17 22 9 12 1006.1 1006.0 0.0
29/07:00pm 31.0 32.7 23.0 62 5.5 W 19 24 10 13 1005.6 1005.5 0.0
29/06:30pm 31.5 33.2 23.0 60 5.9 W 19 22 10 12 1005.3 1005.2 0.0
29/06:00pm 31.7 34.0 22.8 59 6.1 NW 15 20 8 11 1004.9 1004.8 0.0
29/05:30pm 31.7 33.6 22.8 59 6.1 WNW 17 24 9 13 1004.8 1004.7 0.0
29/05:00pm 31.8 33.7 22.7 58 6.2 WNW 17 24 9 13 1004.7 1004.6 0.0
29/04:30pm 31.9 33.2 22.6 58 6.4 WNW 20 26 11 14 1004.8 1004.7 0.0
29/04:00pm 31.9 33.5 22.8 58 6.2 WNW 19 26 10 14 1004.8 1004.7 0.0
29/03:30pm 31.7 33.2 22.7 59 6.2 WNW 19 26 10 14 1005.1 1005.0 0.0
29/03:00pm 32.8 35.2 22.3 54 7.2 WNW 13 24 7 13 1005.1 1005.0 0.0
29/02:30pm 32.5 35.6 22.9 57 6.6 N 11 22 6 12 1005.6 1005.5 0.0
29/02:00pm 33.3 37.3 22.8 54 7.2 WNW 6 9 3 5 1006.3 1006.2 0.0
29/01:30pm 31.9 36.1 22.4 57 6.5 WSW 4 7 2 4 1006.5 1006.4 0.0
29/01:00pm 32.1 36.0 23.0 58 6.3 SW 7 11 4 6 1007.0 1006.9 0.0
29/12:30pm 31.7 34.6 23.2 60 5.9 SW 13 15 7 8 1007.6 1007.5 0.0
29/12:00pm 31.0 34.0 22.6 61 5.7 SSW 11 13 6 7 1008.1 1008.0 0.0
29/11:30am 30.7 32.8 20.9 56 6.5 SSW 11 13 6 7 1008.6 1008.5 0.0
29/11:00am 30.4 33.3 21.7 59 5.9 SW 9 13 5 7 1009.0 1008.9 0.0
29/10:30am 30.0 33.2 21.7 61 5.6 SSW 7 9 4 5 1009.2 1009.1 0.0
29/10:00am 30.5 35.1 23.2 65 5.0 SSE 4 7 2 4 1009.4 1009.3 0.0
29/09:30am 30.2 34.4 22.5 63 5.2 S 4 6 2 3 1009.4 1009.3 0.0
29/09:00am 29.5 33.8 23.7 71 4.0 SSE 7 9 4 5 1009.2 1009.1 0.2
29/08:30am 29.0 33.4 23.8 73 3.6 SSE 7 11 4 6 1009.0 1008.9 0.2
29/08:00am 28.6 33.4 24.4 78 2.9 SSE 7 11 4 6 - - 0.2
29/07:30am 28.7 33.3 24.2 76 3.1 E 7 13 4 7 1008.3 1008.2 0.2
29/07:00am 28.1 32.9 24.4 80 2.6 ENE 7 13 4 7 1007.8 1007.7 0.2
29/06:30am 28.1 32.4 24.2 79 2.7 E 9 13 5 7 1007.4 1007.3 0.2
29/06:00am 27.8 31.0 24.4 82 2.4 E 15 19 8 10 1006.9 1006.8 0.2
29/05:30am 28.9 33.3 24.4 76 3.1 SSW 9 15 5 8 1006.5 1006.4 0.2
29/05:00am 29.6 34.5 24.7 75 3.4 WSW 7 9 4 5 1006.2 1006.1 0.2
29/04:30am 29.5 34.4 24.3 73 3.6 W 6 7 3 4 1005.8 1005.7 0.2
29/04:00am 29.6 34.4 24.5 74 3.6 W 7 11 4 6 1005.7 1005.6 0.2
29/03:30am 29.6 34.1 24.6 74 3.5 W 9 11 5 6 1005.7 1005.6 0.2
29/03:00am 29.6 34.1 24.6 74 3.5 W 9 13 5 7 1005.6 1005.5 0.2
29/02:30am 29.6 34.0 24.4 73 3.6 W 9 13 5 7 1005.8 1005.7 0.2
29/02:00am 29.7 33.9 24.1 72 3.9 W 9 13 5 7 1006.0 1005.9 0.2
29/01:30am 29.5 33.2 24.6 75 3.4 W 13 15 7 8 1006.3 1006.2 0.2
29/01:00am 29.5 33.1 24.3 73 3.6 W 13 17 7 9 1006.7 1006.6 0.2
29/12:30am 29.6 32.9 23.8 71 4.0 W 13 17 7 9 1007.0 1006.9 0.2
29/12:00am 29.6 33.0 23.4 69 4.3 W 11 15 6 8 1007.2 1007.1 0.2
 
Date/Time
CST
Temp
°C
App
Temp
°C
Dew
Point
°C
Rel
Hum
%
Delta-T
°C
Wind Press
QNH
hPa
Press
MSL
hPa
Rain since
9am
mm
Dir  Spd
km/h
Gust
km/h
Spd
kts
Gust
kts
28/11:30pm 29.8 33.7 24.2 72 3.9 W 11 15 6 8 1007.7 1007.6 0.2
28/11:00pm 29.9 34.7 24.1 71 4.0 NW 6 11 3 6 1008.0 1007.9 0.2
28/10:30pm 29.8 34.6 24.1 71 4.0 NNW 6 9 3 5 1007.9 1007.8 0.2
28/10:00pm 29.6 34.7 24.0 72 3.9 N 4 9 2 5 1007.8 1007.7 0.2
28/09:30pm 29.8 34.5 24.0 71 4.0 NNE 6 13 3 7 1007.8 1007.7 0.2
28/09:00pm 29.8 34.4 23.8 70 4.2 N 6 11 3 6 1007.7 1007.6 0.2
28/08:30pm 29.9 34.3 23.5 68 4.4 NE 6 13 3 7 1007.7 1007.6 0.2
28/08:00pm 30.0 34.7 24.0 70 4.2 N 6 13 3 7 1007.3 1007.2 0.2
28/07:30pm 30.0 34.2 24.1 70 4.1 NNE 9 19 5 10 1006.9 1006.8 0.2
28/07:00pm 30.3 34.3 23.8 68 4.5 NNE 9 20 5 11 1006.5 1006.4 0.2
28/06:30pm 31.0 34.6 23.7 65 5.1 N 11 19 6 10 1006.1 1006.0 0.2
28/06:00pm 31.6 34.2 21.9 56 6.6 NNE 11 24 6 13 1005.8 1005.7 0.2
28/05:30pm 32.1 34.3 21.2 52 7.3 NE 11 26 6 14 1005.6 1005.5 0.2
28/05:00pm 32.4 33.9 19.0 45 8.8 NNE 9 19 5 10 1005.3 1005.2 0.2
28/04:30pm 31.6 33.1 20.5 51 7.4 NNE 13 28 7 15 1005.3 1005.2 0.2
28/04:00pm 31.2 32.5 21.7 57 6.4 NNE 17 32 9 17 1005.5 1005.4 0.2
28/03:30pm 32.6 35.0 23.0 57 6.6 NNE 15 28 8 15 1005.9 1005.8 0.2
28/03:00pm 33.1 37.1 23.1 55 6.9 NNW 7 15 4 8 1005.9 1005.8 0.2
28/02:30pm 31.4 34.2 22.3 58 6.2 W 11 17 6 9 1006.4 1006.3 0.2
28/02:00pm 34.0 37.7 19.9 43 9.4 CALM 0 4 0 2 1006.7 1006.6 0.2
28/01:30pm 31.8 34.2 20.0 49 7.8 SSW 7 9 4 5 1007.4 1007.3 0.2
28/01:00pm 31.8 34.6 20.4 51 7.6 S 6 7 3 4 1007.8 1007.7 0.2
28/12:30pm 31.7 34.8 21.1 53 7.1 SE 6 7 3 4 1008.1 1008.0 0.2
28/12:00pm 31.3 34.0 21.4 55 6.7 SE 9 13 5 7 1008.5 1008.4 0.2
28/11:30am 31.0 33.5 21.8 58 6.2 ESE 11 17 6 9 1009.1 1009.0 0.2
28/11:00am 30.4 32.4 22.9 64 5.1 ESE 17 22 9 12 1009.5 1009.4 0.2
28/10:30am 29.7 31.4 23.0 67 4.6 ESE 19 22 10 12 1009.6 1009.5 0.2
28/10:00am 29.1 30.5 22.5 67 4.5 ESE 19 22 10 12 1009.6 1009.5 0.2
28/09:30am 28.5 30.8 23.5 74 3.4 ESE 17 20 9 11 1009.8 1009.7 0.2
28/09:00am 27.9 29.8 23.7 78 2.9 E 20 24 11 13 1009.7 1009.6 1.6
28/08:30am 27.6 28.5 23.9 80 2.6 E 26 32 14 17 1009.5 1009.4 1.6
28/08:00am 27.4 28.0 23.4 79 2.7 ESE 26 30 14 16 1009.4 1009.3 1.6
28/07:30am 26.9 28.6 23.0 79 2.7 E 19 24 10 13 1009.3 1009.2 1.6
28/07:00am 26.9 28.9 23.0 79 2.7 E 17 22 9 12 1008.7 1008.6 1.6
28/06:30am 27.1 29.4 22.1 74 3.4 E 13 19 7 10 1008.3 1008.2 1.6
28/06:00am 27.2 28.8 22.1 73 3.4 E 17 22 9 12 1007.8 1007.7 1.6
28/05:30am 26.8 29.0 23.3 81 2.4 ESE 17 19 9 10 1007.4 1007.3 1.6
28/05:00am 27.1 30.4 23.9 82 2.2 SE 13 17 7 9 1007.2 1007.1 1.6
28/04:30am 27.1 31.0 24.3 85 1.9 E 11 15 6 8 1007.0 1006.9 1.6
28/04:00am 27.3 32.4 24.9 87 1.7 SE 7 11 4 6 1006.9 1006.8 1.6
28/03:30am 27.2 32.8 24.8 87 1.7 E 4 7 2 4 1006.7 1006.6 1.6
28/03:00am 27.4 31.9 24.6 85 1.9 ESE 9 13 5 7 1006.8 1006.7 1.6
28/02:30am 27.3 32.9 24.9 87 1.7 NE 4 6 2 3 1006.6 1006.5 1.6
28/02:00am 27.1 32.4 24.3 85 1.9 ENE 4 6 2 3 1006.8 1006.7 1.6
28/01:30am 27.3 32.5 24.2 83 2.1 NE 4 9 2 5 1007.1 1007.0 1.6
28/01:00am 27.4 32.6 24.2 83 2.2 ENE 4 7 2 4 1007.2 1007.1 1.6
28/12:30am 27.7 33.9 24.6 83 2.2 CALM 0 6 0 3 1007.6 1007.5 1.6
28/12:00am 27.7 33.6 24.1 81 2.5 CALM 0 4 0 2 1007.8 1007.7 1.6
 
Date/Time
CST
Temp
°C
App
Temp
°C
Dew
Point
°C
Rel
Hum
%
Delta-T
°C
Wind Press
QNH
hPa
Press
MSL
hPa
Rain since
9am
mm
Dir  Spd
km/h
Gust
km/h
Spd
kts
Gust
kts
27/11:30pm 27.5 33.7 24.6 84 2.0 CALM 0 4 0 2 1008.0 1007.9 1.6
27/11:00pm 27.4 33.4 24.2 83 2.2 CALM 0 2 0 1 1008.1 1008.0 1.6
27/10:30pm 27.7 33.7 24.3 82 2.4 CALM 0 0 0 0 1007.9 1007.8 1.6
27/10:00pm 27.8 33.9 24.4 82 2.4 CALM 0 0 0 0 1007.9 1007.8 1.6
27/09:30pm 27.8 34.2 24.9 84 2.0 CALM 0 0 0 0 1008.0 1007.9 1.6
27/09:00pm 27.9 34.1 24.6 82 2.3 CALM 0 0 0 0 1007.7 1007.6 1.6
27/08:30pm 28.0 32.9 24.6 82 2.4 SSW 7 11 4 6 1007.5 1007.4 1.6
27/08:00pm 27.9 32.8 24.3 81 2.5 SSW 6 11 3 6 1007.4 1007.3 1.6
27/07:30pm 27.7 32.8 24.1 81 2.5 S 4 7 2 4 1007.2 1007.1 1.6
27/07:00pm 27.7 32.5 24.1 81 2.5 S 6 9 3 5 1006.8 1006.7 1.6
27/06:30pm 27.9 32.3 23.5 77 3.0 SE 6 9 3 5 1006.4 1006.3 1.6
27/06:00pm 27.6 31.6 23.8 80 2.6 ESE 9 13 5 7 1006.2 1006.1 1.6
27/05:30pm 27.2 30.4 24.4 85 1.9 SSE 15 20 8 11 1006.1 1006.0 1.6
27/05:00pm 27.3 31.5 23.5 80 2.6 S 7 13 4 7 1006.0 1005.9 1.6
27/04:30pm 27.4 31.8 23.8 81 2.5 SSW 7 11 4 6 1005.9 1005.8 1.6
27/04:00pm 27.3 32.1 23.5 80 2.6 S 4 7 2 4 1005.8 1005.7 1.6
27/03:30pm 27.3 32.8 24.1 83 2.2 W 2 11 1 6 1006.0 1005.9 1.6
27/03:00pm 26.7 31.1 23.5 82 2.2 NE 6 11 3 6 1006.2 1006.1 1.6
27/02:30pm 26.2 31.2 23.9 87 1.6 WNW 4 7 2 4 1006.8 1006.7 1.6
27/02:00pm 25.9 29.8 22.9 83 2.0 W 7 11 4 6 1007.1 1007.0 1.6
27/01:30pm 25.7 29.4 23.2 86 1.7 SW 9 13 5 7 1007.5 1007.4 1.6
27/01:00pm 25.8 29.3 23.5 87 1.6 WSW 11 17 6 9 1008.2 1008.1 1.6

Other formats

Comma delimited format used in spreadsheet applications
http://www.bom.gov.au/fwo/IDD60801/IDD60801.95122.axf

JavaScript Object Notation format (JSON) in row-major order
http://www.bom.gov.au/fwo/IDD60801/IDD60801.95122.json

Data quality

Most of these data are generated automatically and are frequently updated. Quality checks on data are not normally performed. It is possible for incorrect values to appear. Refer to information at About Latest Weather Observations and please check the disclaimer before using these data.